createdAt,value
2022-11-30T00:03:27.271Z,2.98
2022-11-30T00:08:27.174Z,2.91
2022-11-30T00:13:27.149Z,2.85
2022-11-30T00:18:27.186Z,2.75
2022-11-30T00:23:27.189Z,2.99
2022-11-30T00:28:27.192Z,2.95
2022-11-30T00:33:27.193Z,3.02
2022-11-30T00:38:27.185Z,3.04
2022-11-30T00:43:27.204Z,3.01
2022-11-30T00:48:27.193Z,3.04
2022-11-30T00:53:27.191Z,3.05
2022-11-30T00:58:27.196Z,3.07
2022-11-30T01:03:27.203Z,3.13
2022-11-30T01:08:27.173Z,3.10
2022-11-30T01:13:27.188Z,3.00
2022-11-30T01:18:27.205Z,2.99
2022-11-30T01:23:27.200Z,3.01
2022-11-30T01:28:27.231Z,2.97
2022-11-30T01:33:27.205Z,3.12
2022-11-30T01:38:27.188Z,3.11
2022-11-30T01:43:27.225Z,3.08
2022-11-30T01:48:27.218Z,3.05
2022-11-30T01:53:27.225Z,3.09
2022-11-30T01:58:27.271Z,3.17
2022-11-30T02:03:27.231Z,3.16
2022-11-30T02:08:27.479Z,3.18
2022-11-30T02:13:27.247Z,3.12
2022-11-30T02:18:27.226Z,3.08
2022-11-30T02:23:27.225Z,3.22
2022-11-30T02:28:27.213Z,3.27
2022-11-30T02:33:27.409Z,3.23
2022-11-30T02:38:27.230Z,3.28
2022-11-30T02:43:27.241Z,3.35
2022-11-30T02:48:27.210Z,3.31
2022-11-30T02:53:27.235Z,3.35
2022-11-30T02:58:27.256Z,3.30
2022-11-30T03:03:27.241Z,3.34
2022-11-30T03:08:27.215Z,3.37
2022-11-30T03:13:27.269Z,3.31
2022-11-30T03:18:27.220Z,3.40
2022-11-30T03:23:27.243Z,3.31
2022-11-30T03:28:27.253Z,3.35
2022-11-30T03:33:27.308Z,3.48
2022-11-30T03:38:27.229Z,3.29
2022-11-30T03:43:27.263Z,3.48
2022-11-30T03:48:27.241Z,3.45
2022-11-30T03:53:27.291Z,3.41
2022-11-30T03:58:27.248Z,3.38
2022-11-30T04:03:27.271Z,3.42
2022-11-30T04:08:27.285Z,3.32
2022-11-30T04:13:27.268Z,3.40
2022-11-30T04:18:27.285Z,3.39
2022-11-30T04:23:27.266Z,3.46
2022-11-30T04:28:27.270Z,3.49
2022-11-30T04:33:27.269Z,3.55
2022-11-30T04:38:27.277Z,3.56
2022-11-30T04:43:27.287Z,3.54
2022-11-30T04:48:27.280Z,3.55
2022-11-30T04:53:27.286Z,3.56
2022-11-30T05:03:27.300Z,3.65
2022-11-30T05:08:27.295Z,3.63
2022-11-30T05:13:27.282Z,3.65
2022-11-30T05:18:27.308Z,3.68
2022-11-30T05:23:27.261Z,3.74
2022-11-30T05:28:27.288Z,3.71
2022-11-30T05:33:27.371Z,3.69
2022-11-30T05:43:27.311Z,3.65
2022-11-30T05:48:27.328Z,3.66
2022-11-30T05:53:27.301Z,3.69
2022-11-30T05:58:27.314Z,3.73
2022-11-30T06:03:27.324Z,3.84
2022-11-30T06:08:27.319Z,3.90
2022-11-30T06:13:29.004Z,3.89
2022-11-30T06:23:27.378Z,3.94
2022-11-30T06:28:27.303Z,3.90
2022-11-30T06:33:27.310Z,3.89
2022-11-30T06:38:27.328Z,4.04
2022-11-30T06:43:27.411Z,4.00
2022-11-30T06:48:27.303Z,4.01
2022-11-30T06:53:27.339Z,3.96
2022-11-30T06:58:27.335Z,4.06
2022-11-30T07:08:27.586Z,4.09
2022-11-30T07:13:27.339Z,4.10
2022-11-30T07:18:31.943Z,4.17
2022-11-30T07:23:27.344Z,4.27
2022-11-30T07:28:27.330Z,4.30
2022-11-30T07:33:27.334Z,4.29
2022-11-30T07:38:27.319Z,4.38
2022-11-30T07:43:27.330Z,4.42
2022-11-30T07:53:27.364Z,4.47
2022-11-30T07:58:27.330Z,4.54
2022-11-30T08:03:30.156Z,4.52
2022-11-30T08:08:27.365Z,4.60
2022-11-30T08:13:27.353Z,4.54
2022-11-30T08:18:27.356Z,4.69
2022-11-30T08:23:27.370Z,4.77
2022-11-30T08:28:27.356Z,4.85
2022-11-30T08:33:30.808Z,4.81
2022-11-30T08:43:27.370Z,4.94
2022-11-30T08:48:27.369Z,5.07
2022-11-30T08:53:27.369Z,5.12
2022-11-30T08:58:27.343Z,5.09
2022-11-30T09:03:27.384Z,5.13
2022-11-30T09:08:27.377Z,5.24
2022-11-30T09:13:27.380Z,5.30
2022-11-30T09:18:27.373Z,5.27
2022-11-30T09:23:27.375Z,5.33
2022-11-30T09:28:27.392Z,5.38
2022-11-30T09:33:27.363Z,5.39
2022-11-30T09:38:27.378Z,5.48
2022-11-30T09:43:27.382Z,5.61
2022-11-30T09:48:27.391Z,5.58
2022-11-30T09:53:29.631Z,5.71
2022-11-30T09:58:27.462Z,5.83
2022-11-30T10:03:27.504Z,5.80
2022-11-30T10:08:27.420Z,5.78
2022-11-30T10:13:27.365Z,5.80
2022-11-30T10:18:27.406Z,5.94
2022-11-30T10:23:27.431Z,5.92
2022-11-30T10:33:27.509Z,5.97
2022-11-30T10:38:27.436Z,6.03
2022-11-30T10:43:27.384Z,6.16
2022-11-30T10:48:27.406Z,6.19
2022-11-30T10:53:27.394Z,6.25
2022-11-30T10:58:27.462Z,6.21
2022-11-30T11:03:27.460Z,6.36
2022-11-30T11:08:27.428Z,6.43
2022-11-30T11:13:27.491Z,6.53
2022-11-30T11:18:27.481Z,6.55
2022-11-30T11:23:27.453Z,6.50
2022-11-30T11:28:27.411Z,6.64
2022-11-30T11:33:27.439Z,6.60
2022-11-30T11:38:27.414Z,6.54
2022-11-30T11:43:27.458Z,6.56
2022-11-30T11:48:32.712Z,6.67
2022-11-30T11:53:27.768Z,6.71
2022-11-30T11:58:27.417Z,6.76
2022-11-30T12:03:27.454Z,6.90
2022-11-30T12:08:27.457Z,6.94
2022-11-30T12:13:27.421Z,6.89
2022-11-30T12:18:27.516Z,6.96
2022-11-30T12:23:27.423Z,7.02
2022-11-30T12:28:27.464Z,6.99
2022-11-30T12:33:27.449Z,7.02
2022-11-30T12:38:27.452Z,7.05
2022-11-30T12:43:27.428Z,7.13
2022-11-30T12:48:27.516Z,7.12
2022-11-30T12:53:27.441Z,7.17
2022-11-30T12:58:27.490Z,7.19
2022-11-30T13:03:27.468Z,7.27
2022-11-30T13:08:27.461Z,7.33
2022-11-30T13:13:27.483Z,7.35
2022-11-30T13:18:27.489Z,7.27
2022-11-30T13:23:27.481Z,7.26
2022-11-30T13:28:27.616Z,7.24
2022-11-30T13:38:37.559Z,7.26
2022-11-30T13:43:27.449Z,7.19
2022-11-30T13:48:27.597Z,7.21
2022-11-30T13:53:27.583Z,7.20
2022-11-30T13:58:27.544Z,7.19
2022-11-30T14:03:27.465Z,7.23
2022-11-30T14:08:27.489Z,7.26
2022-11-30T14:13:27.469Z,7.27
2022-11-30T14:18:27.518Z,7.15
2022-11-30T14:23:27.476Z,7.09
2022-11-30T14:28:27.487Z,6.99
2022-11-30T14:33:27.519Z,7.00
2022-11-30T14:38:27.514Z,6.92
2022-11-30T14:43:27.475Z,6.91
2022-11-30T14:48:27.511Z,6.87
2022-11-30T14:53:27.503Z,6.88
2022-11-30T14:58:27.519Z,6.87
2022-11-30T15:03:27.517Z,6.78
2022-11-30T15:08:27.533Z,6.71
2022-11-30T15:13:27.526Z,6.75
2022-11-30T15:18:27.539Z,6.70
2022-11-30T15:23:27.733Z,6.60
2022-11-30T15:28:27.530Z,6.58
2022-11-30T15:33:27.680Z,6.50
2022-11-30T15:38:27.544Z,6.54
2022-11-30T15:43:27.506Z,6.61
2022-11-30T15:48:27.538Z,6.68
2022-11-30T15:53:27.653Z,6.62
2022-11-30T15:58:27.532Z,6.50
2022-11-30T16:03:27.544Z,6.49
2022-11-30T16:08:28.044Z,6.39
2022-11-30T16:13:27.985Z,6.32
2022-11-30T16:18:27.580Z,6.21
2022-11-30T16:23:27.546Z,6.39
2022-11-30T16:28:27.758Z,6.34
2022-11-30T16:33:27.612Z,6.38
2022-11-30T16:38:27.772Z,6.25
2022-11-30T16:43:27.574Z,6.31
2022-11-30T16:48:27.797Z,6.29
2022-11-30T16:53:28.911Z,6.15
2022-11-30T16:58:27.840Z,6.23
2022-11-30T17:03:29.077Z,6.19
2022-11-30T17:08:27.627Z,6.22
2022-11-30T17:13:28.182Z,6.23
2022-11-30T17:18:27.606Z,6.06
2022-11-30T17:23:27.788Z,6.01
2022-11-30T17:28:27.572Z,6.06
2022-11-30T17:33:27.828Z,5.99
2022-11-30T17:38:27.584Z,5.86
2022-11-30T17:43:27.761Z,5.91
2022-11-30T17:48:27.795Z,5.87
2022-11-30T17:53:27.573Z,5.91
2022-11-30T17:58:32.538Z,5.87
2022-11-30T18:03:27.752Z,5.80
2022-11-30T18:13:27.775Z,5.79
2022-11-30T18:18:27.837Z,5.77
2022-11-30T18:23:27.858Z,5.57
2022-11-30T18:28:27.863Z,5.68
2022-11-30T18:33:28.250Z,5.51
2022-11-30T18:38:29.683Z,5.63
2022-11-30T18:43:27.847Z,5.73
2022-11-30T18:48:30.235Z,5.57
2022-11-30T18:53:27.880Z,5.59
2022-11-30T18:58:27.897Z,5.72
2022-11-30T19:08:27.886Z,5.49
2022-11-30T19:13:27.903Z,5.35
2022-11-30T19:18:28.985Z,5.31
2022-11-30T19:23:29.419Z,5.27
2022-11-30T19:28:28.113Z,5.30
2022-11-30T19:33:27.916Z,5.51
2022-11-30T19:38:27.877Z,5.48
2022-11-30T19:43:27.946Z,5.37
2022-11-30T19:48:27.936Z,5.42
2022-11-30T19:53:27.828Z,5.35
2022-11-30T19:58:27.633Z,5.18
2022-11-30T20:03:27.919Z,4.97
2022-11-30T20:08:28.063Z,4.82
2022-11-30T20:13:27.668Z,4.99
2022-11-30T20:18:27.768Z,5.07
2022-11-30T20:23:27.940Z,5.10
2022-11-30T20:28:27.897Z,5.19
2022-11-30T20:33:27.970Z,5.04
2022-11-30T20:38:28.977Z,5.03
2022-11-30T20:48:29.226Z,4.96
2022-11-30T20:53:28.564Z,5.10
2022-11-30T20:58:27.897Z,4.95
2022-11-30T21:03:27.957Z,5.00
2022-11-30T21:08:27.660Z,4.98
2022-11-30T21:13:27.922Z,5.00
2022-11-30T21:23:27.880Z,4.90
2022-11-30T21:28:31.327Z,4.70
2022-11-30T21:33:27.648Z,4.73
2022-11-30T21:38:27.757Z,4.81
2022-11-30T21:43:27.683Z,4.58
2022-11-30T21:48:27.698Z,4.52
2022-11-30T21:53:27.694Z,4.65
2022-11-30T21:58:27.683Z,4.24
2022-11-30T22:03:27.981Z,4.38
2022-11-30T22:08:27.654Z,4.45
2022-11-30T22:13:27.725Z,4.72
2022-11-30T22:18:27.677Z,4.39
2022-11-30T22:23:27.695Z,4.47
2022-11-30T22:28:27.690Z,4.44
2022-11-30T22:33:27.690Z,4.51
2022-11-30T22:38:27.661Z,4.47
2022-11-30T22:43:27.689Z,4.45
2022-11-30T22:48:27.793Z,4.32
2022-11-30T22:53:27.822Z,4.37
2022-11-30T22:58:27.703Z,4.34
2022-11-30T23:03:27.939Z,4.59
2022-11-30T23:08:27.686Z,4.56
2022-11-30T23:13:27.724Z,4.38
2022-11-30T23:18:27.709Z,4.48
2022-11-30T23:23:27.677Z,4.44
2022-11-30T23:28:27.711Z,4.47
2022-11-30T23:33:27.688Z,4.36
2022-11-30T23:38:27.731Z,4.19
2022-11-30T23:43:27.737Z,4.17
2022-11-30T23:48:27.704Z,4.16
2022-11-30T23:53:27.771Z,3.90
2022-11-30T23:58:27.733Z,3.89
